Time;durP1;ratioP1;P1;durP2;ratioP2;P2;SDS_P1;SDS_P2;PMS_P1;PMS_P2;Temp;Humidity;BMP_temperature;BMP_pressure;BME280_temperature;BME280_humidity;BME280_pressure;Samples;Min_cycle;Max_cycle;Signal;HPM_P1;HPM_P2
2022/01/09 00:00:25;;;;;;;12.30;7.05;;;;;;;-4.87;78.53;99791.44;4865206;29;20099;-71
2022/01/09 00:02:50;;;;;;;10.15;6.18;;;;;;;-4.59;79.41;99794.69;4882115;29;20047;-70
2022/01/09 00:05:15;;;;;;;13.80;5.97;;;;;;;-4.68;79.19;99794.75;4864566;29;20494;-70
2022/01/09 00:07:40;;;;;;;3.20;2.15;;;;;;;-4.73;79.47;99796.53;4881647;29;20594;-69
2022/01/09 00:10:07;;;;;;;9.63;5.95;;;;;;;-4.77;79.73;99803.50;4865460;29;20418;-74
2022/01/09 00:12:32;;;;;;;9.48;5.90;;;;;;;-4.89;79.36;99794.94;4882094;29;20054;-74
2022/01/09 00:14:57;;;;;;;13.30;6.63;;;;;;;-4.71;79.47;99804.31;4865082;29;20077;-68
2022/01/09 00:17:22;;;;;;;15.50;5.32;;;;;;;-4.79;79.59;99797.44;4882119;29;20047;-74
2022/01/09 00:19:46;;;;;;;14.13;6.07;;;;;;;-4.89;79.40;99794.94;4883143;29;20063;-75
2022/01/09 00:22:12;;;;;;;8.95;4.82;;;;;;;-4.78;79.58;99816.50;4888129;29;20047;-73
2022/01/09 00:24:38;;;;;;;12.13;6.25;;;;;;;-4.85;79.70;99797.47;4887110;29;20533;-74
2022/01/09 00:27:03;;;;;;;11.27;6.00;;;;;;;-4.85;79.45;99778.41;4884323;29;20392;-73
2022/01/09 00:29:28;;;;;;;10.73;6.28;;;;;;;-4.90;79.23;99780.19;4848937;29;20072;-71
2022/01/09 00:31:53;;;;;;;8.55;5.40;;;;;;;-4.67;79.66;99772.22;4848703;29;20112;-73
2022/01/09 00:34:17;;;;;;;12.88;3.80;;;;;;;-4.59;79.91;99784.28;4864435;29;20513;-72
2022/01/09 00:36:42;;;;;;;12.80;7.43;;;;;;;-4.60;79.62;99781.69;4881430;29;20407;-70
2022/01/09 00:39:07;;;;;;;12.07;7.70;;;;;;;-4.84;79.02;99778.41;4880866;29;20060;-70
2022/01/09 00:41:31;;;;;;;4.05;3.22;;;;;;;-4.68;79.33;99783.50;4864527;29;20040;-67
2022/01/09 00:43:56;;;;;;;10.77;5.50;;;;;;;-4.79;79.24;99775.78;4864102;29;20621;-72
2022/01/09 00:46:21;;;;;;;11.75;7.38;;;;;;;-4.89;78.98;99784.53;4863283;29;20379;-70
2022/01/09 00:48:46;;;;;;;17.65;6.40;;;;;;;-4.85;78.95;99775.81;4867649;29;20059;-72
2022/01/09 00:51:10;;;;;;;10.77;6.80;;;;;;;-4.96;79.21;99782.81;4852152;29;20597;-69
2022/01/09 00:53:35;;;;;;;12.00;7.00;;;;;;;-4.86;79.83;99789.72;4864768;29;20102;-68
2022/01/09 00:56:00;;;;;;;11.18;6.78;;;;;;;-4.94;79.68;99771.53;4883405;29;20087;-68
2022/01/09 00:58:25;;;;;;;9.32;4.57;;;;;;;-5.02;79.17;99783.75;4862819;29;20519;-70
2022/01/09 01:00:50;;;;;;;9.77;5.10;;;;;;;-4.83;79.46;99766.25;4848766;29;20099;-68
2022/01/09 01:03:15;;;;;;;8.48;5.20;;;;;;;-5.10;79.53;99775.16;4848796;29;20513;-71
2022/01/09 01:05:40;;;;;;;12.25;8.30;;;;;;;-4.87;79.46;99762.84;4864187;29;20503;-70
2022/01/09 01:08:05;;;;;;;15.48;8.23;;;;;;;-4.86;78.46;99746.38;4864789;29;20040;-68
2022/01/09 01:10:31;;;;;;;14.13;7.20;;;;;;;-5.06;78.32;99739.56;4863731;29;20047;-70
2022/01/09 01:12:57;;;;;;;11.55;6.32;;;;;;;-5.12;78.71;99749.16;4879975;29;20059;-70
2022/01/09 01:15:22;;;;;;;8.77;6.13;;;;;;;-5.08;79.42;99756.94;4860530;29;20039;-72
2022/01/09 01:17:47;;;;;;;12.80;6.85;;;;;;;-5.25;78.66;99747.50;4882500;29;20048;-69
2022/01/09 01:20:12;;;;;;;10.98;5.80;;;;;;;-5.04;79.42;99756.03;4882534;29;20131;-71
2022/01/09 01:22:38;;;;;;;9.77;5.13;;;;;;;-4.97;79.26;99763.78;4865513;29;20181;-71
2022/01/09 01:25:05;;;;;;;7.28;4.00;;;;;;;-4.80;79.68;99743.72;4862513;29;20134;-72
2022/01/09 01:27:29;;;;;;;14.90;7.47;;;;;;;-5.08;79.07;99737.00;4863827;29;20036;-74
2022/01/09 01:29:55;;;;;;;14.45;8.02;;;;;;;-5.07;79.28;99736.09;4862755;29;20047;-71
2022/01/09 01:32:19;;;;;;;6.85;4.63;;;;;;;-5.09;79.37;99740.47;4879001;29;20509;-66
2022/01/09 01:34:44;;;;;;;8.55;4.88;;;;;;;-4.85;79.09;99734.22;4879669;29;20414;-65
2022/01/09 01:37:09;;;;;;;6.80;4.30;;;;;;;-5.12;78.96;99728.38;4862819;29;20040;-65
2022/01/09 01:39:34;;;;;;;13.10;6.95;;;;;;;-5.23;78.76;99743.16;4876939;29;20419;-66
2022/01/09 01:41:58;;;;;;;15.85;8.63;;;;;;;-5.16;79.35;99728.38;4861609;29;20047;-68
2022/01/09 01:44:24;;;;;;;11.15;6.75;;;;;;;-5.05;79.10;99720.50;4861921;29;20083;-66
2022/01/09 01:46:49;;;;;;;15.82;8.55;;;;;;;-5.39;78.92;99719.88;4861815;29;20040;-66
2022/01/09 01:49:14;;;;;;;20.85;7.43;;;;;;;-5.28;79.09;99718.06;4881169;29;20044;-69
2022/01/09 01:51:43;;;;;;;13.90;6.43;;;;;;;-5.28;79.47;99716.34;4862712;29;20052;-67
2022/01/09 01:54:10;;;;;;;4.72;3.35;;;;;;;-5.16;79.71;99707.59;4862537;29;20134;-66
2022/01/09 01:56:35;;;;;;;13.20;7.30;;;;;;;-5.41;79.32;99703.44;4862483;29;20044;-65
2022/01/09 01:59:00;;;;;;;12.40;5.97;;;;;;;-5.55;79.25;99709.59;4863042;29;20052;-66
2022/01/09 02:01:25;;;;;;;10.20;7.15;;;;;;;-5.52;79.06;99701.75;4879706;29;20039;-65
2022/01/09 02:03:50;;;;;;;11.15;5.63;;;;;;;-5.47;79.40;99699.16;4862920;29;20052;-67
2022/01/09 02:06:15;;;;;;;12.73;7.95;;;;;;;-5.69;79.42;99688.03;4862756;29;20063;-67
2022/01/09 02:08:41;;;;;;;11.52;6.60;;;;;;;-5.53;79.65;99692.25;4862929;29;20391;-67
2022/01/09 02:11:06;;;;;;;7.32;4.22;;;;;;;-5.50;79.48;99679.25;4863567;29;20052;-68
2022/01/09 02:13:31;;;;;;;12.93;7.82;;;;;;;-5.66;79.18;99680.22;4880456;29;20040;-68
2022/01/09 02:16:00;;;;;;;18.88;8.80;;;;;;;-5.78;78.94;99679.44;4847585;29;20107;-68
2022/01/09 02:18:26;;;;;;;14.13;7.18;;;;;;;-5.56;79.52;99678.44;4848608;29;20055;-64
2022/01/09 02:20:52;;;;;;;15.90;8.43;;;;;;;-5.55;79.25;99682.75;4863021;29;20056;-67
2022/01/09 02:23:18;;;;;;;18.02;8.80;;;;;;;-5.50;79.41;99686.19;4846915;29;20429;-66
2022/01/09 02:25:44;;;;;;;17.45;8.32;;;;;;;-5.64;78.98;99683.66;4879437;29;20399;-66
2022/01/09 02:28:11;;;;;;;16.48;8.80;;;;;;;-5.72;78.98;99675.06;4879371;29;20055;-67
2022/01/09 02:30:36;;;;;;;15.52;8.75;;;;;;;-5.60;78.72;99687.97;4879594;29;20044;-66
2022/01/09 02:33:02;;;;;;;14.40;7.47;;;;;;;-5.54;79.01;99690.56;4878873;29;20044;-68
2022/01/09 02:35:27;;;;;;;14.38;7.65;;;;;;;-5.44;78.72;99696.53;4861569;29;20047;-68
2022/01/09 02:37:52;;;;;;;14.23;7.78;;;;;;;-5.28;78.83;99692.09;4878831;29;20040;-68
2022/01/09 02:40:16;;;;;;;20.15;9.05;;;;;;;-5.35;78.46;99683.50;4878811;29;20063;-66
2022/01/09 02:42:41;;;;;;;12.23;6.65;;;;;;;-5.30;78.75;99689.50;4862179;29;20059;-68
2022/01/09 02:45:06;;;;;;;8.50;5.53;;;;;;;-5.22;78.72;99690.31;4853562;29;20494;-71
2022/01/09 02:47:33;;;;;;;16.25;8.50;;;;;;;-5.29;78.57;99686.03;4859069;29;20037;-68
2022/01/09 02:50:07;;;;;;;11.93;7.78;;;;;;;-5.10;79.08;99681.56;4860389;29;20040;-67
2022/01/09 02:52:35;;;;;;;5.55;3.42;;;;;;;-5.17;79.31;99682.47;4860326;29;20061;-67
2022/01/09 02:55:12;;;;;;;18.67;7.75;;;;;;;-5.23;78.84;99683.41;4860109;29;20052;-67
2022/01/09 02:57:41;;;;;;;13.98;7.57;;;;;;;-5.13;78.74;99674.66;4860713;29;20072;-68
2022/01/09 03:00:09;;;;;;;17.48;8.50;;;;;;;-5.14;78.97;99664.28;4843462;29;20151;-68
2022/01/09 03:02:34;;;;;;;14.13;8.35;;;;;;;-5.20;78.18;99656.53;4843142;29;20045;-66
2022/01/09 03:04:59;;;;;;;11.73;5.45;;;;;;;-5.23;78.44;99660.03;4843564;29;20459;-66
2022/01/09 03:07:24;;;;;;;14.73;8.13;;;;;;;-5.47;77.21;99661.94;4860076;29;20044;-67
2022/01/09 03:09:49;;;;;;;18.70;8.32;;;;;;;-5.59;76.67;99650.75;4843065;29;20053;-69
2022/01/09 03:12:13;;;;;;;14.65;6.72;;;;;;;-5.50;76.61;99668.84;4863839;29;20047;-68
2022/01/09 03:14:38;;;;;;;13.45;6.05;;;;;;;-5.19;77.67;99653.06;4861521;29;20059;-67
2022/01/09 03:17:03;;;;;;;9.63;6.32;;;;;;;-5.23;77.52;99648.75;4865520;29;20131;-67
2022/01/09 03:19:28;;;;;;;11.15;4.72;;;;;;;-5.34;77.10;99658.38;4867685;29;20051;-63
2022/01/09 03:21:52;;;;;;;14.25;6.90;;;;;;;-5.22;77.42;99659.16;4882788;29;20048;-65
2022/01/09 03:24:17;;;;;;;17.50;10.27;;;;;;;-5.50;76.07;99658.47;4881082;29;20060;-62
2022/01/09 03:26:43;;;;;;;12.90;8.15;;;;;;;-5.41;75.89;99647.16;4861984;29;20794;-62
2022/01/09 03:29:07;;;;;;;17.67;7.38;;;;;;;-5.45;75.30;99655.00;4861693;29;20099;-64
2022/01/09 03:31:32;;;;;;;15.73;8.43;;;;;;;-5.54;74.53;99649.00;4861517;29;20055;-65
2022/01/09 03:33:57;;;;;;;5.72;3.53;;;;;;;-5.25;76.11;99640.97;4878608;29;20106;-64
2022/01/09 03:36:23;;;;;;;16.05;7.45;;;;;;;-5.23;75.89;99635.78;4878702;29;20120;-64
2022/01/09 03:38:47;;;;;;;15.05;9.18;;;;;;;-5.46;73.61;99640.28;4878742;29;20060;-65
2022/01/09 03:41:12;;;;;;;10.50;6.55;;;;;;;-5.29;75.18;99647.06;4895702;29;20422;-65
2022/01/09 03:43:37;;;;;;;8.88;5.25;;;;;;;-5.12;74.98;99653.00;4865182;29;20052;-65
2022/01/09 03:46:02;;;;;;;8.63;5.20;;;;;;;-5.06;75.17;99636.47;4882148;29;20516;-65
2022/01/09 03:48:26;;;;;;;14.45;8.27;;;;;;;-5.48;72.28;99635.09;4896235;29;20046;-66
2022/01/09 03:50:52;;;;;;;13.98;6.45;;;;;;;-5.35;73.18;99638.47;4881998;29;20887;-66
2022/01/09 03:53:17;;;;;;;16.20;7.50;;;;;;;-5.27;73.62;99627.13;4878889;29;20388;-65
2022/01/09 03:55:42;;;;;;;16.33;7.88;;;;;;;-5.38;72.24;99635.88;4881760;29;20126;-65
2022/01/09 03:58:07;;;;;;;14.30;5.80;;;;;;;-5.30;73.28;99636.66;4864680;29;20131;-66
2022/01/09 04:00:33;;;;;;;10.68;4.68;;;;;;;-5.20;73.51;99633.16;4862198;29;20040;-67
2022/01/09 04:02:57;;;;;;;7.15;4.03;;;;;;;-5.13;74.63;99646.06;4881352;29;20042;-66
2022/01/09 04:05:22;;;;;;;10.18;6.78;;;;;;;-5.16;73.54;99653.88;4879831;29;20058;-67
2022/01/09 04:07:47;;;;;;;9.57;5.20;;;;;;;-5.06;72.93;99656.41;4864525;29;20123;-64
2022/01/09 04:10:12;;;;;;;15.02;6.78;;;;;;;-5.16;72.48;99640.88;4864310;29;20044;-64
2022/01/09 04:12:48;;;;;;;6.53;4.70;;;;;;;-5.08;73.35;99648.66;4881382;29;20107;-64
2022/01/09 04:15:14;;;;;;;13.50;6.70;;;;;;;-5.24;71.35;99649.63;4878881;29;20040;-65
2022/01/09 04:17:49;;;;;;;7.95;4.85;;;;;;;-5.18;72.05;99644.38;4881310;29;20078;-65
2022/01/09 04:20:14;;;;;;;8.25;4.75;;;;;;;-5.21;72.82;99636.63;4881562;29;20466;-65
2022/01/09 04:22:40;;;;;;;9.57;4.93;;;;;;;-5.19;72.55;99637.47;4881146;29;20482;-64
2022/01/09 04:25:05;;;;;;;14.60;6.75;;;;;;;-5.19;72.89;99627.09;4880835;29;20054;-66
2022/01/09 04:27:31;;;;;;;8.65;5.55;;;;;;;-5.05;72.71;99625.19;4880843;29;20111;-65
2022/01/09 04:29:56;;;;;;;9.82;6.07;;;;;;;-5.24;70.51;99636.63;4880771;29;20044;-66
2022/01/09 04:32:20;;;;;;;8.88;6.57;;;;;;;-5.22;71.88;99635.75;4880501;29;20036;-65
2022/01/09 04:34:45;;;;;;;10.65;5.85;;;;;;;-5.31;70.97;99620.25;4882179;29;20055;-66
2022/01/09 04:37:13;;;;;;;8.52;4.45;;;;;;;-5.25;71.84;99619.31;4864101;29;20088;-66
2022/01/09 11:30:45;;;;;;;3.45;2.45;;;;;;;-3.55;64.27;99528.72;4859926;29;20064;-69
2022/01/09 11:33:29;;;;;;;4.37;2.30;;;;;;;-3.48;62.45;99535.53;4864424;29;20727;-68
2022/01/09 11:36:04;;;;;;;10.48;4.78;;;;;;;-3.70;62.12;99523.75;4847425;29;20127;-72
2022/01/09 11:38:41;;;;;;;7.43;4.53;;;;;;;-3.86;62.23;99525.75;4863630;29;20076;-71
2022/01/09 11:41:27;;;;;;;9.35;5.07;;;;;;;-3.79;64.31;99524.75;4847082;29;20072;-72
2022/01/09 11:43:58;;;;;;;8.95;4.90;;;;;;;-3.74;64.02;99522.09;4831481;29;20056;-70
2022/01/09 11:46:25;;;;;;;12.43;6.03;;;;;;;-3.83;63.82;99522.22;4864803;29;20059;-70
2022/01/09 11:48:52;;;;;;;9.32;5.32;;;;;;;-3.84;64.39;99516.19;4864330;29;20047;-72
2022/01/09 11:51:21;;;;;;;9.38;4.75;;;;;;;-3.79;65.09;99511.75;4846575;29;20071;-73
2022/01/09 11:54:12;;;;;;;10.63;4.90;;;;;;;-3.87;64.28;99516.22;4864436;29;20392;-71
2022/01/09 11:57:09;;;;;;;7.57;3.97;;;;;;;-3.88;63.88;99504.09;4863855;29;20132;-72
2022/01/09 11:59:48;;;;;;;8.95;4.50;;;;;;;-3.81;64.45;99508.28;4847515;29;20107;-73
2022/01/09 12:02:16;;;;;;;10.32;5.03;;;;;;;-3.70;65.98;99510.72;4859954;29;20044;-72
2022/01/09 12:04:40;;;;;;;10.80;5.32;;;;;;;-3.70;65.98;99513.34;4864312;29;20104;-73
2022/01/09 12:07:07;;;;;;;7.15;4.55;;;;;;;-3.69;66.07;99513.31;4846326;29;20128;-74
2022/01/09 12:09:41;;;;;;;8.57;4.68;;;;;;;-3.79;65.21;99503.94;4863189;29;20570;-73
2022/01/09 12:12:15;;;;;;;8.37;4.23;;;;;;;-3.84;64.76;99500.56;4860924;29;20044;-72
2022/01/09 12:14:45;;;;;;;13.93;4.13;;;;;;;-3.75;66.56;99491.72;4862786;29;20096;-71
2022/01/09 12:17:29;;;;;;;6.40;3.83;;;;;;;-3.76;64.79;99498.69;4864133;29;20305;-71
2022/01/09 12:20:12;;;;;;;6.97;4.32;;;;;;;-3.76;64.18;99487.41;4845864;29;20121;-71
2022/01/09 12:22:45;;;;;;;6.20;3.92;;;;;;;-3.71;64.59;99499.44;4845962;29;20056;-71
2022/01/09 12:25:36;;;;;;;8.90;4.88;;;;;;;-3.66;64.87;99494.16;4845834;29;20562;-71
2022/01/09 12:28:08;;;;;;;8.88;5.72;;;;;;;-3.83;63.38;99486.63;4862689;29;20079;-72
2022/01/09 12:30:52;;;;;;;8.70;5.00;;;;;;;-3.89;62.44;99475.47;4827710;29;20052;-75
2022/01/09 12:33:27;;;;;;;9.02;5.18;;;;;;;-3.80;65.88;99483.13;4845049;29;20496;-72
2022/01/09 12:36:00;;;;;;;8.48;4.93;;;;;;;-3.86;66.71;99472.81;4844844;29;20620;-71
2022/01/09 12:38:27;;;;;;;;;;;;;;;-3.81;68.69;99474.44;4845000;29;20049;-72
2022/01/09 12:41:07;;;;;;;7.90;4.38;;;;;;;-3.99;66.93;99473.88;4843917;29;19967;-71
2022/01/09 12:43:34;;;;;;;9.05;4.70;;;;;;;-3.98;68.15;99468.66;4829749;29;20036;-73
2022/01/09 12:46:27;;;;;;;11.60;4.70;;;;;;;-3.95;68.38;99467.75;4845199;29;20072;-71
2022/01/09 12:48:57;;;;;;;12.73;5.88;;;;;;;-4.03;68.31;99457.44;4828044;29;20103;-72
2022/01/09 12:51:22;;;;;;;7.90;4.75;;;;;;;-3.98;68.28;99459.97;4828349;29;20056;-72
2022/01/09 12:53:50;;;;;;;10.60;4.53;;;;;;;-4.03;68.33;99457.44;4827559;29;20040;-72
2022/01/09 12:56:20;;;;;;;11.13;6.38;;;;;;;-4.04;68.61;99466.13;4844071;29;20052;-74
2022/01/09 12:58:47;;;;;;;10.52;4.78;;;;;;;-4.04;69.23;99466.13;4843100;29;20045;-76
2022/01/09 13:01:27;;;;;;;14.05;5.72;;;;;;;-4.04;67.75;99460.94;4826080;29;20512;-74
2022/01/09 13:04:14;;;;;;;9.77;5.55;;;;;;;-4.07;68.31;99461.00;4826392;29;20064;-72
2022/01/09 13:06:40;;;;;;;7.63;4.63;;;;;;;-4.18;67.15;99466.38;4811377;29;20053;-75
2022/01/09 13:09:13;;;;;;;12.32;5.82;;;;;;;-4.33;66.73;99466.59;4844421;29;20056;-74
2022/01/09 13:11:38;;;;;;;7.07;4.47;;;;;;;-4.42;66.83;99462.38;4843271;29;20049;-73
2022/01/09 13:14:02;;;;;;;10.15;5.00;;;;;;;-4.44;65.51;99471.94;4843089;29;20049;-74
2022/01/09 13:16:31;;;;;;;8.73;4.63;;;;;;;-4.35;67.96;99464.88;4844195;29;20045;-75
2022/01/09 13:19:07;;;;;;;9.00;4.78;;;;;;;-4.36;66.23;99464.03;4844779;29;20053;-74
2022/01/09 13:21:37;;;;;;;11.30;5.45;;;;;;;-4.19;69.29;99464.66;4827004;29;20477;-75
2022/01/09 13:24:13;;;;;;;10.18;5.18;;;;;;;-4.08;68.80;99460.13;4843198;29;20052;-75
2022/01/09 13:26:53;;;;;;;12.02;5.53;;;;;;;-4.20;68.46;99470.72;4843875;29;20554;-75
2022/01/09 13:29:21;;;;;;;10.38;5.20;;;;;;;-4.33;67.92;99463.97;4852548;29;20500;-74
2022/01/09 13:32:07;;;;;;;5.70;3.60;;;;;;;-4.10;68.20;99453.22;4862865;29;20554;-75
2022/01/09 13:34:42;;;;;;;;;;;;;;;-4.10;67.46;99455.84;5155999;27;20493;-74
2022/01/09 13:37:11;;;;;;;8.50;4.18;;;;;;;-4.29;67.27;99451.78;5154750;27;19919;-74
2022/01/09 13:39:39;;;;;;;6.53;3.58;;;;;;;-4.28;67.13;99448.28;5135845;27;20133;-76
2022/01/09 13:42:06;;;;;;;8.27;4.25;;;;;;;-4.42;67.85;99438.09;5121726;27;20491;-75
2022/01/09 13:44:34;;;;;;;10.85;6.00;;;;;;;-4.42;66.88;99438.09;5122467;27;20395;-74
2022/01/09 13:47:05;;;;;;;9.40;5.43;;;;;;;-4.37;67.56;99431.06;5138480;27;20593;-75
2022/01/09 13:49:32;;;;;;;11.82;5.75;;;;;;;-4.52;66.40;99431.31;5153942;27;20121;-75
2022/01/09 13:51:59;;;;;;;10.82;6.05;;;;;;;-4.58;66.61;99432.25;5134946;27;20099;-75
2022/01/09 13:54:27;;;;;;;15.50;4.38;;;;;;;-4.44;65.82;99427.72;5153546;27;20598;-75
2022/01/09 13:57:07;;;;;;;13.52;5.60;;;;;;;-4.39;64.94;99423.28;5135214;27;20049;-74
2022/01/09 13:59:47;;;;;;;12.57;6.72;;;;;;;-4.53;65.95;99419.19;5153968;27;20415;-75
2022/01/09 14:02:14;;;;;;;11.63;5.13;;;;;;;-4.67;66.83;99418.50;5154450;27;20557;-75
2022/01/09 14:04:39;;;;;;;5.97;3.88;;;;;;;-4.54;65.96;99409.66;5153960;27;20053;-74
2022/01/09 14:07:14;;;;;;;11.15;5.78;;;;;;;-4.70;65.85;99411.59;5157017;27;20045;-74
2022/01/09 14:09:52;;;;;;;12.68;5.78;;;;;;;-4.80;66.68;99413.47;5121179;27;20863;-74
2022/01/09 14:12:21;;;;;;;12.52;5.85;;;;;;;-4.87;67.12;99416.19;5134944;27;20395;-73
2022/01/09 14:14:49;;;;;;;11.60;6.35;;;;;;;-4.87;68.60;99411.84;5135279;27;20045;-74
2022/01/09 14:17:33;;;;;;;5.40;3.20;;;;;;;-4.64;69.48;99410.69;5154738;27;20042;-71
2022/01/09 14:20:01;;;;;;;10.82;5.85;;;;;;;-4.58;68.39;99415.78;5153894;27;20407;-73
2022/01/09 14:22:48;;;;;;;15.13;7.45;;;;;;;-4.74;67.71;99419.50;5153941;27;20181;-76
2022/01/09 14:25:25;;;;;;;7.10;3.97;;;;;;;-4.77;67.58;99415.19;5153807;27;20168;-74
2022/01/09 14:27:50;;;;;;;16.83;7.00;;;;;;;-5.02;67.54;99414.63;5135403;27;20053;-75
2022/01/09 14:30:25;;;;;;;9.30;4.97;;;;;;;-5.08;68.85;99406.94;5154393;27;20041;-74
2022/01/09 14:33:27;;;;;;;17.65;7.78;;;;;;;-5.18;69.75;99400.09;5136007;27;20111;-75
2022/01/09 14:36:14;;;;;;;16.33;6.85;;;;;;;-5.31;70.07;99406.34;5049432;28;20135;-72
2022/01/09 14:39:01;;;;;;;14.90;7.88;;;;;;;-5.29;71.16;99400.22;5049184;28;20056;-70
2022/01/09 14:41:30;;;;;;;13.30;6.75;;;;;;;-5.37;71.08;99411.59;5050004;28;20526;-73
2022/01/09 14:43:58;;;;;;;18.75;7.78;;;;;;;-5.33;72.12;99411.56;5048429;28;20414;-72
2022/01/09 14:46:26;;;;;;;11.25;4.50;;;;;;;-5.30;72.13;99406.31;4984449;28;20053;-71
2022/01/09 14:48:55;;;;;;;14.80;5.72;;;;;;;-5.35;72.56;99407.25;5000579;28;20053;-73
2022/01/09 14:51:21;;;;;;;9.55;5.57;;;;;;;-5.36;72.83;99409.00;5015717;28;20147;-73
2022/01/09 14:53:46;;;;;;;14.68;7.40;;;;;;;-5.45;72.26;99409.09;5001362;28;20045;-73
2022/01/09 14:56:11;;;;;;;15.20;7.25;;;;;;;-5.58;72.50;99410.09;5006913;28;20082;-72
2022/01/09 14:58:39;;;;;;;11.07;5.82;;;;;;;-5.64;72.91;99410.16;5008578;28;20048;-73
2022/01/09 15:01:07;;;;;;;13.73;6.65;;;;;;;-5.61;73.57;99412.72;5008180;28;20044;-73
2022/01/09 15:03:57;;;;;;;14.57;7.43;;;;;;;-5.59;74.29;99398.84;5023781;28;20076;-72
2022/01/09 15:06:22;;;;;;;10.65;5.82;;;;;;;-5.59;74.16;99398.84;5008554;28;20136;-73
2022/01/09 15:08:48;;;;;;;18.20;7.25;;;;;;;-5.55;74.27;99395.34;5008907;28;20052;-73
2022/01/09 15:11:14;;;;;;;11.52;6.15;;;;;;;-5.53;74.08;99393.56;5051146;27;20050;-73
2022/01/09 15:13:39;;;;;;;16.80;7.55;;;;;;;-5.68;74.34;99393.75;5110746;27;20447;-73
2022/01/09 15:16:04;;;;;;;14.57;8.02;;;;;;;-5.75;74.56;99383.44;5130397;27;20034;-72
2022/01/09 15:18:30;;;;;;;11.93;6.43;;;;;;;-5.55;74.98;99384.09;5120372;27;20023;-75
2022/01/09 15:20:56;;;;;;;10.05;5.30;;;;;;;-5.54;74.30;99378.03;5113582;27;20031;-73
2022/01/09 15:23:22;;;;;;;14.57;7.72;;;;;;;-5.64;74.60;99379.00;5148879;27;20039;-74
2022/01/09 15:25:47;;;;;;;7.88;4.13;;;;;;;-5.63;74.51;99376.38;5149453;27;20070;-72
2022/01/09 15:28:13;;;;;;;15.15;6.25;;;;;;;-5.58;73.92;99379.81;5133133;27;20073;-74
2022/01/09 15:30:42;;;;;;;15.98;7.80;;;;;;;-5.69;73.58;99381.66;5135512;27;20042;-73
2022/01/09 15:33:07;;;;;;;9.50;3.63;;;;;;;-5.68;73.77;99374.72;5110330;27;20049;-70
2022/01/09 15:35:34;;;;;;;8.50;5.30;;;;;;;-5.72;73.92;99375.63;5120358;27;20047;-73
2022/01/09 15:37:59;;;;;;;16.15;8.63;;;;;;;-5.86;74.00;99376.63;5101044;27;20053;-72
2022/01/09 15:40:25;;;;;;;21.42;9.65;;;;;;;-5.87;73.96;99376.66;5118619;27;20066;-74
2022/01/09 15:42:50;;;;;;;4.78;3.40;;;;;;;-5.86;74.69;99365.38;5118120;27;20038;-70
2022/01/09 15:45:16;;;;;;;13.27;5.75;;;;;;;-5.78;74.35;99375.69;5118074;27;20039;-72
2022/01/09 15:47:42;;;;;;;11.70;6.50;;;;;;;-5.76;73.66;99381.75;5119034;27;20070;-72
2022/01/09 15:50:09;;;;;;;18.15;6.80;;;;;;;-5.81;73.78;99376.59;5118842;27;20106;-72
2022/01/09 15:52:34;;;;;;;13.88;5.43;;;;;;;-5.81;73.56;99368.78;5119036;27;20909;-72
2022/01/09 15:55:02;;;;;;;5.90;4.20;;;;;;;-5.84;73.81;99368.81;5099876;27;20070;-72
2022/01/09 15:57:30;;;;;;;13.30;7.05;;;;;;;-6.05;74.08;99366.47;5082425;27;20064;-71
2022/01/09 15:59:56;;;;;;;17.95;6.90;;;;;;;-6.11;74.59;99364.81;5134028;27;20695;-71
2022/01/09 16:02:21;;;;;;;13.82;5.80;;;;;;;-6.05;74.53;99369.94;5138813;27;20399;-71
2022/01/09 16:04:47;;;;;;;14.23;6.13;;;;;;;-6.00;75.33;99362.13;5138642;27;20082;-70
2022/01/09 16:07:13;;;;;;;15.75;7.63;;;;;;;-6.07;74.91;99366.47;5137887;27;20053;-73
2022/01/09 16:09:40;;;;;;;12.57;6.88;;;;;;;-6.11;75.53;99356.16;5117724;27;20037;-74
2022/01/09 16:12:10;;;;;;;17.23;7.43;;;;;;;-6.11;75.90;99362.22;5102348;27;20042;-75
2022/01/09 16:14:42;;;;;;;12.30;5.05;;;;;;;-6.00;75.75;99368.16;5138290;27;20129;-75
2022/01/09 16:17:08;;;;;;;9.93;4.70;;;;;;;-5.95;76.20;99355.13;5138500;27;20399;-76
2022/01/09 16:19:33;;;;;;;13.20;7.35;;;;;;;-5.93;76.17;99353.38;5138830;27;20190;-77
2022/01/09 16:22:01;;;;;;;15.43;6.82;;;;;;;-5.96;76.60;99345.63;5101706;27;20054;-71
2022/01/09 16:24:26;;;;;;;15.02;6.93;;;;;;;-5.88;76.37;99342.06;5130863;27;20650;-72
2022/01/09 16:26:52;;;;;;;11.60;5.07;;;;;;;-5.90;76.20;99335.19;5118987;27;20042;-71
2022/01/09 16:29:17;;;;;;;11.02;5.65;;;;;;;-5.86;76.59;99339.41;5120435;27;20402;-72
2022/01/09 16:31:45;;;;;;;14.85;7.82;;;;;;;-5.95;76.49;99336.97;5098014;27;20046;-71
2022/01/09 16:34:11;;;;;;;18.50;7.78;;;;;;;-6.00;76.84;99346.53;5116694;27;20502;-73
2022/01/09 16:36:36;;;;;;;19.55;8.93;;;;;;;-6.05;77.04;99350.91;5097912;27;20030;-72
2022/01/09 16:39:02;;;;;;;11.27;3.22;;;;;;;-5.87;77.30;99340.31;5117719;27;20053;-72
2022/01/09 16:41:29;;;;;;;13.55;6.53;;;;;;;-5.94;77.51;99349.06;5116831;27;20570;-71
2022/01/09 16:43:55;;;;;;;11.75;6.13;;;;;;;-5.95;77.62;99352.53;5098236;27;20566;-72
2022/01/09 16:46:22;;;;;;;16.42;8.15;;;;;;;-5.81;77.77;99358.41;5116135;27;20500;-72
2022/01/09 16:48:48;;;;;;;18.02;7.35;;;;;;;-5.71;77.61;99343.59;5081017;27;20062;-72
2022/01/09 16:51:13;;;;;;;13.63;6.95;;;;;;;-5.81;77.53;99341.97;5097580;27;20113;-71
2022/01/09 16:53:42;;;;;;;17.02;7.82;;;;;;;-5.84;77.62;99342.88;5119388;27;20130;-74
2022/01/09 16:56:08;;;;;;;13.35;7.22;;;;;;;-5.90;77.41;99342.97;5118538;27;20049;-73
2022/01/09 16:58:33;;;;;;;11.60;6.10;;;;;;;-5.90;77.83;99332.59;5116379;27;20050;-76
2022/01/09 17:00:59;;;;;;;14.00;6.28;;;;;;;-5.85;77.85;99330.75;5097704;27;20400;-73
2022/01/09 17:03:24;;;;;;;6.70;4.63;;;;;;;-5.76;78.29;99338.47;5097662;27;20381;-76
2022/01/09 17:05:49;;;;;;;18.38;8.73;;;;;;;-5.81;78.16;99335.06;5132824;27;20535;-74
2022/01/09 17:08:15;;;;;;;19.20;7.65;;;;;;;-5.86;78.24;99335.09;5138416;27;20046;-74
2022/01/09 17:10:40;;;;;;;18.15;7.78;;;;;;;-5.75;78.09;99337.56;5139940;27;20038;-72
2022/01/09 17:13:05;;;;;;;11.00;6.13;;;;;;;-5.77;78.02;99331.56;5084072;27;20048;-76
2022/01/09 17:15:30;;;;;;;23.55;9.18;;;;;;;-5.79;78.26;99332.44;5118577;27;20101;-73
2022/01/09 17:17:57;;;;;;;18.30;7.45;;;;;;;-5.81;78.32;99326.41;5137082;27;20448;-73
2022/01/09 17:20:23;;;;;;;15.40;7.57;;;;;;;-5.78;78.24;99331.56;5118803;27;20052;-76
2022/01/09 17:22:48;;;;;;;18.10;8.95;;;;;;;-5.87;78.67;99329.94;5137121;27;20137;-75
2022/01/09 17:25:15;;;;;;;20.50;9.30;;;;;;;-5.96;78.26;99327.44;5101173;27;20042;-75
2022/01/09 17:27:44;;;;;;;19.08;8.55;;;;;;;-5.88;78.48;99323.06;5118606;27;20057;-75
2022/01/09 17:30:09;;;;;;;17.50;7.47;;;;;;;-5.87;78.86;99327.34;5124978;27;20039;-74
2022/01/09 17:32:34;;;;;;;18.70;9.32;;;;;;;-5.89;78.60;99327.38;5081093;27;20404;-75
2022/01/09 17:34:59;;;;;;;11.13;5.35;;;;;;;-5.83;79.22;99322.97;5080641;27;20042;-76
2022/01/09 17:37:24;;;;;;;20.77;9.15;;;;;;;-5.79;78.96;99320.31;5116261;27;20049;-74
2022/01/09 17:39:49;;;;;;;16.58;8.50;;;;;;;-5.82;78.98;99314.31;5066108;27;20125;-75
2022/01/09 17:42:15;;;;;;;21.20;10.82;;;;;;;-5.81;78.82;99318.63;5116303;27;20480;-76
2022/01/09 17:44:40;;;;;;;14.35;6.90;;;;;;;-5.77;78.63;99317.72;5097963;27;20035;-74
2022/01/09 17:47:04;;;;;;;19.05;8.57;;;;;;;-5.87;78.81;99322.16;5116873;27;20038;-75
2022/01/09 17:49:34;;;;;;;13.52;6.50;;;;;;;-5.91;78.53;99315.31;5117294;27;20059;-75
2022/01/09 17:52:00;;;;;;;14.55;8.25;;;;;;;-5.96;78.74;99319.66;5080761;27;20054;-75
2022/01/09 17:54:28;;;;;;;2.95;2.47;;;;;;;-5.83;79.14;99312.56;5097443;27;20035;-76
2022/01/09 17:56:53;;;;;;;19.27;9.88;;;;;;;-5.93;78.68;99317.03;5097742;27;20579;-75
2022/01/09 17:59:18;;;;;;;22.95;9.27;;;;;;;-6.00;78.40;99307.63;5115354;27;20043;-76
2022/01/09 18:01:43;;;;;;;17.05;7.80;;;;;;;-6.02;78.83;99311.97;5118424;27;20130;-76
2022/01/09 18:04:08;;;;;;;14.35;6.30;;;;;;;-5.81;78.82;99318.63;5099043;27;20038;-71
2022/01/09 18:06:33;;;;;;;23.42;9.35;;;;;;;-5.88;78.36;99310.09;5116007;27;20039;-73
2022/01/09 18:08:59;;;;;;;20.25;8.65;;;;;;;-5.83;78.72;99318.63;5097086;27;20039;-71
2022/01/09 18:11:25;;;;;;;17.25;8.40;;;;;;;-5.95;78.11;99308.41;5115949;27;20039;-72
2022/01/09 18:13:51;;;;;;;13.73;5.57;;;;;;;-6.01;78.46;99318.88;5096961;27;20030;-73
2022/01/09 18:16:16;;;;;;;19.08;8.80;;;;;;;-6.08;78.58;99317.19;5096952;27;20707;-73
2022/01/09 18:18:41;;;;;;;14.30;7.13;;;;;;;-5.94;79.04;99305.81;5115591;27;20043;-72
2022/01/09 18:21:06;;;;;;;18.67;9.60;;;;;;;-5.95;78.39;99305.81;5118781;27;20043;-73
2022/01/09 18:23:31;;;;;;;24.15;8.82;;;;;;;-6.07;78.21;99313.72;5119320;27;20122;-74